Terminal Aerodrome Forecast
Issued by NWS Central Illinois

Home | Current Version | Previous Version | Text Only | Print | Product List | Glossary On
Versions: 1 2 3 4 5 6 7 8 9 10 11 12
422
FTUS43 KILX 260535
TAFPIA
TAF
KPIA 260535Z 2606/2706 18011KT P6SM BKN080
     FM261100 18010KT P6SM -SHRA VCTS BKN025CB
     FM261600 21011KT P6SM VCSH OVC030
     FM261900 22011KT 3SM SHRA VCTS OVC015CB
     FM270000 29008KT 4SM -SHRA BR OVC008=

USA.gov is the U.S. government's official web portal to all federal, state and local government web resources and services.